Epic St Croix — 9HA4038 — position and weather

sailwx.info

Track history (hours):
 
Tides and Currents Weather Stations Pressure Air Temp Water Temp Dewpoint Dewpoint Depression Visibility Wind Speed Wind Dir Waves Ship Positions

Epic St Croix

Last reported at 2018-Jan-12 14:56 UTC. Time now 2018-Jan-19 07:59 UTC.
Position N 35°58' W 005°48'.

Length 100 m; draft 5 m.

Type: Tanker. MMSI: 256925000.

Date/timePositionNaut miles runAvg speedWind from/ knotsBaromVisibWave heightAir tempDewpointWater temp
2018-Jan-12 14:56N 35°58' W 005°48'510.9
2018-Jan-12 14:30N 35°58' W 005°42'510.3
2018-Jan-12 13:59N 35°58' W 005°35'510.0
2018-Jan-12 13:30N 35°60' W 005°30'5 9.9
2018-Jan-12 13:00N 36°02' W 005°24'510.4
2018-Jan-12 12:30N 36°07' W 005°24'3 6.5
2018-Jan-12 12:00N 36°11' W 005°24'0 0.3
2018-Jan-12 11:27N 36°11' W 005°24'0 0.0
2018-Jan-12 10:57N 36°11' W 005°24'0 0.0
2018-Jan-12 10:30N 36°11' W 005°24'0 0.0
2018-Jan-12 10:00N 36°11' W 005°24'0 0.0
2018-Jan-12 09:30N 36°11' W 005°24'0 0.0
2018-Jan-12 09:00N 36°11' W 005°24'0 0.0
2018-Jan-12 08:30N 36°11' W 005°24'0 0.0
2018-Jan-12 08:00N 36°11' W 005°24'0 0.0
2018-Jan-12 07:30N 36°11' W 005°24'0 0.0
2018-Jan-12 06:57N 36°11' W 005°24'0 0.0
2018-Jan-12 06:30N 36°11' W 005°24'0 0.0
2018-Jan-12 05:59N 36°11' W 005°24'0 0.0
2018-Jan-12 05:31N 36°11' W 005°24'0 0.0
2018-Jan-12 05:00N 36°11' W 005°24'0 0.0
2018-Jan-12 04:30N 36°11' W 005°24'0 0.0
2018-Jan-12 04:00N 36°11' W 005°24'0 0.0
2018-Jan-12 03:30N 36°11' W 005°24'0 0.0
2018-Jan-12 02:57N 36°11' W 005°24'0 0.0
2018-Jan-12 02:30N 36°11' W 005°24'0 0.0
2018-Jan-12 02:00N 36°11' W 005°24'0 0.0
2018-Jan-12 01:30N 36°11' W 005°24'0 0.0
2018-Jan-12 01:00N 36°11' W 005°24'0 0.0
2018-Jan-12 00:30N 36°11' W 005°24'0 0.0
2018-Jan-12 00:00N 36°11' W 005°24'0 0.0
2018-Jan-11 23:30N 36°11' W 005°24'0 0.0
2018-Jan-11 22:57N 36°11' W 005°24'0 0.0
2018-Jan-11 22:27N 36°11' W 005°24'0 0.0
2018-Jan-11 21:57N 36°11' W 005°24'0 0.0
2018-Jan-11 21:30N 36°11' W 005°24'0 0.0
2018-Jan-11 21:00N 36°11' W 005°24'0 0.0
2018-Jan-11 20:27N 36°11' W 005°24'0 0.0
2018-Jan-11 20:00N 36°11' W 005°24'0 0.0
2018-Jan-11 19:30N 36°11' W 005°24'0 0.0
2018-Jan-11 18:59N 36°11' W 005°24'0 0.0
2018-Jan-11 18:29N 36°11' W 005°24'0 0.0
2018-Jan-11 17:59N 36°11' W 005°24'0 0.0
2018-Jan-11 17:29N 36°11' W 005°24'0 0.0
2018-Jan-11 16:59N 36°11' W 005°24'0 0.0
2018-Jan-11 16:30N 36°11' W 005°24'0 0.0
2018-Jan-11 15:59N 36°11' W 005°24'0 0.0
2018-Jan-11 15:29N 36°11' W 005°24'0 0.0
2018-Jan-11 14:59N 36°11' W 005°24'0 0.0
2018-Jan-11 14:29N 36°11' W 005°24'0 0.0
2018-Jan-11 13:53N 36°11' W 005°24'0 0.0
2018-Jan-11 13:29N 36°11' W 005°24'0 0.0
2018-Jan-11 13:00N 36°11' W 005°24'0 0.0
2018-Jan-11 12:29N 36°11' W 005°24'0 0.0
2018-Jan-11 12:00N 36°11' W 005°24'0 0.0
2018-Jan-11 11:29N 36°11' W 005°24'0 0.0
2018-Jan-11 10:53N 36°11' W 005°24'0 0.6
2018-Jan-11 10:30N 36°10' W 005°24'1 1.2
2018-Jan-11 09:59N 36°10' W 005°23'0 0.1
2018-Jan-11 09:29N 36°10' W 005°23'0 0.1
2018-Jan-11 08:58N 36°10' W 005°23'0 0.0
2018-Jan-11 08:25N 36°10' W 005°23'0 0.1
2018-Jan-11 08:00N 36°10' W 005°23'3 5.4
2018-Jan-11 07:30N 36°08' W 005°24'4 8.3
2018-Jan-11 07:00N 36°05' W 005°20'0 0.5
2018-Jan-11 06:30N 36°04' W 005°21'4 8.3
2018-Jan-11 06:00N 36°01' W 005°23'611.7
2018-Jan-11 05:29N 35°58' W 005°29'612.5
2018-Jan-11 05:00N 35°56' W 005°36'611.3
2018-Jan-11 04:29N 35°55' W 005°44'511.2
2018-Jan-11 04:00N 35°54' W 005°50'611.2
2018-Jan-11 03:25N 35°54' W 005°58'24410.5
2018-Jan-10 04:11N 38°19' W 010°05'312.7
2018-Jan-10 03:56N 38°22' W 010°06'712.6
2018-Jan-10 03:22N 38°29' W 010°08'712.7
2018-Jan-10 02:51N 38°35' W 010°10'512.8
2018-Jan-10 02:28N 38°40' W 010°12'612.3
2018-Jan-10 02:00N 38°46' W 010°12'712.4
2018-Jan-10 01:27N 38°52' W 010°12'612.6
2018-Jan-10 01:00N 38°58' W 010°12'712.5
2018-Jan-10 00:26N 39°05' W 010°12'612.4
2018-Jan-09 23:59N 39°11' W 010°12'712.4
2018-Jan-09 23:24N 39°18' W 010°12'326 8.4
2018-Jan-08 08:46N 43°47' W 006°06'612.4
2018-Jan-08 08:20N 43°46' W 005°59'512.3
2018-Jan-08 07:56N 43°45' W 005°52'611.7
2018-Jan-08 07:27N 43°41' W 005°46'512.0
2018-Jan-08 07:00N 43°38' W 005°40'4 7.4
2018-Jan-08 06:30N 43°35' W 005°38'2 0.3
2018-Jan-08 00:12N 43°34' W 005°41'0 0.0
2018-Jan-07 23:56N 43°34' W 005°41'0 0.0
2018-Jan-07 21:14N 43°34' W 005°41'0 0.0
2018-Jan-07 21:00N 43°34' W 005°41'0 0.0
2018-Jan-07 20:30N 43°34' W 005°41'0 0.0
2018-Jan-07 20:00N 43°34' W 005°41'0 0.0
2018-Jan-07 19:29N 43°34' W 005°41'0 0.0
2018-Jan-07 19:00N 43°34' W 005°41'0 0.0
2018-Jan-07 18:30N 43°34' W 005°41'0 0.0
2018-Jan-07 18:00N 43°34' W 005°41'0 0.0
2018-Jan-07 17:30N 43°34' W 005°41'0 0.0
2018-Jan-07 17:00N 43°34' W 005°41'0 0.0
2018-Jan-07 16:30N 43°34' W 005°41'0 0.0
2018-Jan-07 16:00N 43°34' W 005°41'0 0.0
2018-Jan-07 15:30N 43°34' W 005°41'0 0.0
2018-Jan-07 15:00N 43°34' W 005°41'0 0.0
2018-Jan-07 14:30N 43°34' W 005°41'0 0.0
2018-Jan-07 14:00N 43°34' W 005°41'0 0.0
2018-Jan-07 13:30N 43°34' W 005°41'0 0.0
2018-Jan-07 12:57N 43°34' W 005°41'0 0.0
2018-Jan-07 12:30N 43°34' W 005°41'0 0.0
2018-Jan-07 12:00N 43°34' W 005°41'0 0.0
2018-Jan-07 11:30N 43°34' W 005°41'0 0.0
2018-Jan-07 11:00N 43°34' W 005°41'0 0.0
2018-Jan-07 10:30N 43°34' W 005°41'0 0.0
2018-Jan-07 10:00N 43°34' W 005°41'0 0.0
2018-Jan-07 09:30N 43°34' W 005°41'0 0.0
2018-Jan-07 09:00N 43°34' W 005°41'0 0.0
2018-Jan-07 08:30N 43°34' W 005°41'0 0.0
2018-Jan-07 08:00N 43°34' W 005°41'0 0.4
2018-Jan-07 07:30N 43°34' W 005°41'3 5.9
2018-Jan-07 07:00N 43°37' W 005°40'3 4.8
2018-Jan-07 06:28N 43°39' W 005°38'1 1.7
2018-Jan-07 05:58N 43°39' W 005°38'1 2.4
2018-Jan-07 05:26N 43°39' W 005°39'1 1.4
2018-Jan-07 04:56N 43°39' W 005°38'1 1.4
2018-Jan-07 04:26N 43°40' W 005°38'0 1.1
2018-Jan-07 04:01N 43°40' W 005°37'1 1.1
2018-Jan-07 03:30N 43°40' W 005°37'0 0.8
2018-Jan-07 03:01N 43°39' W 005°37'1 1.7
2018-Jan-07 02:31N 43°38' W 005°38'2 3.6
2018-Jan-07 02:00N 43°37' W 005°37'1 1.5
2018-Jan-07 01:31N 43°36' W 005°36'1 0.9
2018-Jan-07 00:31N 43°37' W 005°37'1 1.0
2018-Jan-07 00:01N 43°37' W 005°37'0 0.9
2018-Jan-06 23:29N 43°38' W 005°38'0 0.6
2018-Jan-06 22:58N 43°38' W 005°38'2 0.8
2018-Jan-06 20:32N 43°40' W 005°39'0 0.8
2018-Jan-06 20:29N 43°40' W 005°39'1 2.1
2018-Jan-06 19:57N 43°40' W 005°41'511.6
2018-Jan-06 19:30N 43°42' W 005°47'712.3
2018-Jan-06 18:56N 43°46' W 005°55'199 6.9
2018-Jan-05 14:10N 41°13' W 008°48'210.1
2018-Jan-05 14:00N 41°11' W 008°47'3 6.8
2018-Jan-05 13:30N 41°10' W 008°42'1 1.6
2018-Jan-05 12:58N 41°11' W 008°43'0 0.0
2018-Jan-05 12:28N 41°11' W 008°43'0 0.0
2018-Jan-05 11:58N 41°11' W 008°43'0 0.0
2018-Jan-05 11:28N 41°11' W 008°43'0 0.0
2018-Jan-05 10:58N 41°11' W 008°43'0 0.0
2018-Jan-05 10:28N 41°11' W 008°43'0 0.0
2018-Jan-05 09:58N 41°11' W 008°43'0 0.0
2018-Jan-05 09:28N 41°11' W 008°43'0 0.0
2018-Jan-05 08:58N 41°11' W 008°43'0 0.0
2018-Jan-05 08:28N 41°11' W 008°43'0 0.0
2018-Jan-05 07:58N 41°11' W 008°43'0 0.0
2018-Jan-05 07:28N 41°11' W 008°43'0 0.0
2018-Jan-05 06:58N 41°11' W 008°43'0 0.0
2018-Jan-05 06:28N 41°11' W 008°43'0 0.0
2018-Jan-05 05:58N 41°11' W 008°43'0 0.0
2018-Jan-05 05:28N 41°11' W 008°43'0 0.0
2018-Jan-05 04:58N 41°11' W 008°43'0 0.0
2018-Jan-05 04:28N 41°11' W 008°43'0 0.0
2018-Jan-05 03:58N 41°11' W 008°43'0 0.0
2018-Jan-05 03:28N 41°11' W 008°43'0 0.0
2018-Jan-05 02:58N 41°11' W 008°43'0 0.0
2018-Jan-05 02:28N 41°11' W 008°43'0 0.0
2018-Jan-05 01:58N 41°11' W 008°43'0 0.0
2018-Jan-05 01:28N 41°11' W 008°43'0 0.0
2018-Jan-05 00:58N 41°11' W 008°43'0 0.0
2018-Jan-05 00:28N 41°11' W 008°43'0 0.0
2018-Jan-04 23:58N 41°11' W 008°43'0 0.0
2018-Jan-04 23:28N 41°11' W 008°43'0 0.0
2018-Jan-04 22:58N 41°11' W 008°43'0 0.0
2018-Jan-04 22:28N 41°11' W 008°43'0 0.0
2018-Jan-04 21:58N 41°11' W 008°43'0 0.0
2018-Jan-04 21:28N 41°11' W 008°43'0 0.0
2018-Jan-04 20:58N 41°11' W 008°43'0 0.0
2018-Jan-04 20:28N 41°11' W 008°43'0 0.0
2018-Jan-04 19:58N 41°11' W 008°43'0 0.0
2018-Jan-04 19:28N 41°11' W 008°43'0 0.0
2018-Jan-04 18:58N 41°11' W 008°43'0 0.0
2018-Jan-04 18:28N 41°11' W 008°43'0 0.0
2018-Jan-04 17:58N 41°11' W 008°43'0 0.0
2018-Jan-04 17:28N 41°11' W 008°43'0 0.0
2018-Jan-04 16:58N 41°11' W 008°43'0 0.0
2018-Jan-04 16:28N 41°11' W 008°43'0 0.0
2018-Jan-04 15:58N 41°11' W 008°43'0 0.0
2018-Jan-04 15:28N 41°11' W 008°43'0 0.3
2018-Jan-04 15:01N 41°11' W 008°43'2 3.8
2018-Jan-04 14:31N 41°10' W 008°45'0 0.5
2018-Jan-04 14:00N 41°10' W 008°45'2 4.3
2018-Jan-04 13:30N 41°12' W 008°47'193 5.9
2018-Jan-03 04:51N 43°46' W 006°10'3 9.0
2018-Jan-03 04:29N 43°46' W 006°06'4 8.3
2018-Jan-03 03:59N 43°46' W 006°00'4 8.1
2018-Jan-03 03:30N 43°45' W 005°55'4 8.6
2018-Jan-03 03:00N 43°43' W 005°50'4 8.8
2018-Jan-03 02:30N 43°41' W 005°45'5 9.9
2018-Jan-03 02:00N 43°38' W 005°39'4 7.2
2018-Jan-03 01:29N 43°34' W 005°39'  
Track history (hours):
 
Tides and Currents Weather Stations Pressure Air Temp Water Temp Dewpoint Dewpoint Depression Visibility Wind Speed Wind Dir Waves Ship Positions

Epic St Croix

Last reported at 2018-Jan-12 14:56 UTC. Time now 2018-Jan-19 07:59 UTC.
Position N 35°58' W 005°48'.

Length 100 m; draft 5 m.

Type: Tanker. MMSI: 256925000.

Date/timePositionNaut miles runAvg speedWind from/ knotsBaromVisibWave heightAir tempDewpointWater temp
2018-Jan-12 14:56N 35°58' W 005°48'510.9
2018-Jan-12 14:30N 35°58' W 005°42'510.3
2018-Jan-12 13:59N 35°58' W 005°35'510.0
2018-Jan-12 13:30N 35°60' W 005°30'5 9.9
2018-Jan-12 13:00N 36°02' W 005°24'510.4
2018-Jan-12 12:30N 36°07' W 005°24'3 6.5
2018-Jan-12 12:00N 36°11' W 005°24'0 0.3
2018-Jan-12 11:27N 36°11' W 005°24'0 0.0
2018-Jan-12 10:57N 36°11' W 005°24'0 0.0
2018-Jan-12 10:30N 36°11' W 005°24'0 0.0
2018-Jan-12 10:00N 36°11' W 005°24'0 0.0
2018-Jan-12 09:30N 36°11' W 005°24'0 0.0
2018-Jan-12 09:00N 36°11' W 005°24'0 0.0
2018-Jan-12 08:30N 36°11' W 005°24'0 0.0
2018-Jan-12 08:00N 36°11' W 005°24'0 0.0
2018-Jan-12 07:30N 36°11' W 005°24'0 0.0
2018-Jan-12 06:57N 36°11' W 005°24'0 0.0
2018-Jan-12 06:30N 36°11' W 005°24'0 0.0
2018-Jan-12 05:59N 36°11' W 005°24'0 0.0
2018-Jan-12 05:31N 36°11' W 005°24'0 0.0
2018-Jan-12 05:00N 36°11' W 005°24'0 0.0
2018-Jan-12 04:30N 36°11' W 005°24'0 0.0
2018-Jan-12 04:00N 36°11' W 005°24'0 0.0
2018-Jan-12 03:30N 36°11' W 005°24'0 0.0
2018-Jan-12 02:57N 36°11' W 005°24'0 0.0
2018-Jan-12 02:30N 36°11' W 005°24'0 0.0
2018-Jan-12 02:00N 36°11' W 005°24'0 0.0
2018-Jan-12 01:30N 36°11' W 005°24'0 0.0
2018-Jan-12 01:00N 36°11' W 005°24'0 0.0
2018-Jan-12 00:30N 36°11' W 005°24'0 0.0
2018-Jan-12 00:00N 36°11' W 005°24'0 0.0
2018-Jan-11 23:30N 36°11' W 005°24'0 0.0
2018-Jan-11 22:57N 36°11' W 005°24'0 0.0
2018-Jan-11 22:27N 36°11' W 005°24'0 0.0
2018-Jan-11 21:57N 36°11' W 005°24'0 0.0
2018-Jan-11 21:30N 36°11' W 005°24'0 0.0
2018-Jan-11 21:00N 36°11' W 005°24'0 0.0
2018-Jan-11 20:27N 36°11' W 005°24'0 0.0
2018-Jan-11 20:00N 36°11' W 005°24'0 0.0
2018-Jan-11 19:30N 36°11' W 005°24'0 0.0
2018-Jan-11 18:59N 36°11' W 005°24'0 0.0
2018-Jan-11 18:29N 36°11' W 005°24'0 0.0
2018-Jan-11 17:59N 36°11' W 005°24'0 0.0
2018-Jan-11 17:29N 36°11' W 005°24'0 0.0
2018-Jan-11 16:59N 36°11' W 005°24'0 0.0
2018-Jan-11 16:30N 36°11' W 005°24'0 0.0
2018-Jan-11 15:59N 36°11' W 005°24'0 0.0
2018-Jan-11 15:29N 36°11' W 005°24'0 0.0
2018-Jan-11 14:59N 36°11' W 005°24'0 0.0
2018-Jan-11 14:29N 36°11' W 005°24'0 0.0
2018-Jan-11 13:53N 36°11' W 005°24'0 0.0
2018-Jan-11 13:29N 36°11' W 005°24'0 0.0
2018-Jan-11 13:00N 36°11' W 005°24'0 0.0
2018-Jan-11 12:29N 36°11' W 005°24'0 0.0
2018-Jan-11 12:00N 36°11' W 005°24'0 0.0
2018-Jan-11 11:29N 36°11' W 005°24'0 0.0
2018-Jan-11 10:53N 36°11' W 005°24'0 0.6
2018-Jan-11 10:30N 36°10' W 005°24'1 1.2
2018-Jan-11 09:59N 36°10' W 005°23'0 0.1
2018-Jan-11 09:29N 36°10' W 005°23'0 0.1
2018-Jan-11 08:58N 36°10' W 005°23'0 0.0
2018-Jan-11 08:25N 36°10' W 005°23'0 0.1
2018-Jan-11 08:00N 36°10' W 005°23'3 5.4
2018-Jan-11 07:30N 36°08' W 005°24'4 8.3
2018-Jan-11 07:00N 36°05' W 005°20'0 0.5
2018-Jan-11 06:30N 36°04' W 005°21'4 8.3
2018-Jan-11 06:00N 36°01' W 005°23'611.7
2018-Jan-11 05:29N 35°58' W 005°29'612.5
2018-Jan-11 05:00N 35°56' W 005°36'611.3
2018-Jan-11 04:29N 35°55' W 005°44'511.2
2018-Jan-11 04:00N 35°54' W 005°50'611.2
2018-Jan-11 03:25N 35°54' W 005°58'24410.5
2018-Jan-10 04:11N 38°19' W 010°05'312.7
2018-Jan-10 03:56N 38°22' W 010°06'712.6
2018-Jan-10 03:22N 38°29' W 010°08'712.7
2018-Jan-10 02:51N 38°35' W 010°10'512.8
2018-Jan-10 02:28N 38°40' W 010°12'612.3
2018-Jan-10 02:00N 38°46' W 010°12'712.4
2018-Jan-10 01:27N 38°52' W 010°12'612.6
2018-Jan-10 01:00N 38°58' W 010°12'712.5
2018-Jan-10 00:26N 39°05' W 010°12'612.4
2018-Jan-09 23:59N 39°11' W 010°12'712.4
2018-Jan-09 23:24N 39°18' W 010°12'326 8.4
2018-Jan-08 08:46N 43°47' W 006°06'612.4
2018-Jan-08 08:20N 43°46' W 005°59'512.3
2018-Jan-08 07:56N 43°45' W 005°52'611.7
2018-Jan-08 07:27N 43°41' W 005°46'512.0
2018-Jan-08 07:00N 43°38' W 005°40'4 7.4
2018-Jan-08 06:30N 43°35' W 005°38'2 0.3
2018-Jan-08 00:12N 43°34' W 005°41'0 0.0
2018-Jan-07 23:56N 43°34' W 005°41'0 0.0
2018-Jan-07 21:14N 43°34' W 005°41'0 0.0
2018-Jan-07 21:00N 43°34' W 005°41'0 0.0
2018-Jan-07 20:30N 43°34' W 005°41'0 0.0
2018-Jan-07 20:00N 43°34' W 005°41'0 0.0
2018-Jan-07 19:29N 43°34' W 005°41'0 0.0
2018-Jan-07 19:00N 43°34' W 005°41'0 0.0
2018-Jan-07 18:30N 43°34' W 005°41'0 0.0
2018-Jan-07 18:00N 43°34' W 005°41'0 0.0
2018-Jan-07 17:30N 43°34' W 005°41'0 0.0
2018-Jan-07 17:00N 43°34' W 005°41'0 0.0
2018-Jan-07 16:30N 43°34' W 005°41'0 0.0
2018-Jan-07 16:00N 43°34' W 005°41'0 0.0
2018-Jan-07 15:30N 43°34' W 005°41'0 0.0
2018-Jan-07 15:00N 43°34' W 005°41'0 0.0
2018-Jan-07 14:30N 43°34' W 005°41'0 0.0
2018-Jan-07 14:00N 43°34' W 005°41'0 0.0
2018-Jan-07 13:30N 43°34' W 005°41'0 0.0
2018-Jan-07 12:57N 43°34' W 005°41'0 0.0
2018-Jan-07 12:30N 43°34' W 005°41'0 0.0
2018-Jan-07 12:00N 43°34' W 005°41'0 0.0
2018-Jan-07 11:30N 43°34' W 005°41'0 0.0
2018-Jan-07 11:00N 43°34' W 005°41'0 0.0
2018-Jan-07 10:30N 43°34' W 005°41'0 0.0
2018-Jan-07 10:00N 43°34' W 005°41'0 0.0
2018-Jan-07 09:30N 43°34' W 005°41'0 0.0
2018-Jan-07 09:00N 43°34' W 005°41'0 0.0
2018-Jan-07 08:30N 43°34' W 005°41'0 0.0
2018-Jan-07 08:00N 43°34' W 005°41'0 0.4
2018-Jan-07 07:30N 43°34' W 005°41'3 5.9
2018-Jan-07 07:00N 43°37' W 005°40'3 4.8
2018-Jan-07 06:28N 43°39' W 005°38'1 1.7
2018-Jan-07 05:58N 43°39' W 005°38'1 2.4
2018-Jan-07 05:26N 43°39' W 005°39'1 1.4
2018-Jan-07 04:56N 43°39' W 005°38'1 1.4
2018-Jan-07 04:26N 43°40' W 005°38'0 1.1
2018-Jan-07 04:01N 43°40' W 005°37'1 1.1
2018-Jan-07 03:30N 43°40' W 005°37'0 0.8
2018-Jan-07 03:01N 43°39' W 005°37'1 1.7
2018-Jan-07 02:31N 43°38' W 005°38'2 3.6
2018-Jan-07 02:00N 43°37' W 005°37'1 1.5
2018-Jan-07 01:31N 43°36' W 005°36'1 0.9
2018-Jan-07 00:31N 43°37' W 005°37'1 1.0
2018-Jan-07 00:01N 43°37' W 005°37'0 0.9
2018-Jan-06 23:29N 43°38' W 005°38'0 0.6
2018-Jan-06 22:58N 43°38' W 005°38'2 0.8
2018-Jan-06 20:32N 43°40' W 005°39'0 0.8
2018-Jan-06 20:29N 43°40' W 005°39'1 2.1
2018-Jan-06 19:57N 43°40' W 005°41'511.6
2018-Jan-06 19:30N 43°42' W 005°47'712.3
2018-Jan-06 18:56N 43°46' W 005°55'199 6.9
2018-Jan-05 14:10N 41°13' W 008°48'210.1
2018-Jan-05 14:00N 41°11' W 008°47'3 6.8
2018-Jan-05 13:30N 41°10' W 008°42'1 1.6
2018-Jan-05 12:58N 41°11' W 008°43'0 0.0
2018-Jan-05 12:28N 41°11' W 008°43'0 0.0
2018-Jan-05 11:58N 41°11' W 008°43'0 0.0
2018-Jan-05 11:28N 41°11' W 008°43'0 0.0
2018-Jan-05 10:58N 41°11' W 008°43'0 0.0
2018-Jan-05 10:28N 41°11' W 008°43'0 0.0
2018-Jan-05 09:58N 41°11' W 008°43'0 0.0
2018-Jan-05 09:28N 41°11' W 008°43'0 0.0
2018-Jan-05 08:58N 41°11' W 008°43'0 0.0
2018-Jan-05 08:28N 41°11' W 008°43'0 0.0
2018-Jan-05 07:58N 41°11' W 008°43'0 0.0
2018-Jan-05 07:28N 41°11' W 008°43'0 0.0
2018-Jan-05 06:58N 41°11' W 008°43'0 0.0
2018-Jan-05 06:28N 41°11' W 008°43'0 0.0
2018-Jan-05 05:58N 41°11' W 008°43'0 0.0
2018-Jan-05 05:28N 41°11' W 008°43'0 0.0
2018-Jan-05 04:58N 41°11' W 008°43'0 0.0
2018-Jan-05 04:28N 41°11' W 008°43'0 0.0
2018-Jan-05 03:58N 41°11' W 008°43'0 0.0
2018-Jan-05 03:28N 41°11' W 008°43'0 0.0
2018-Jan-05 02:58N 41°11' W 008°43'0 0.0
2018-Jan-05 02:28N 41°11' W 008°43'0 0.0
2018-Jan-05 01:58N 41°11' W 008°43'0 0.0
2018-Jan-05 01:28N 41°11' W 008°43'0 0.0
2018-Jan-05 00:58N 41°11' W 008°43'0 0.0
2018-Jan-05 00:28N 41°11' W 008°43'0 0.0
2018-Jan-04 23:58N 41°11' W 008°43'0 0.0
2018-Jan-04 23:28N 41°11' W 008°43'0 0.0
2018-Jan-04 22:58N 41°11' W 008°43'0 0.0
2018-Jan-04 22:28N 41°11' W 008°43'0 0.0
2018-Jan-04 21:58N 41°11' W 008°43'0 0.0
2018-Jan-04 21:28N 41°11' W 008°43'0 0.0
2018-Jan-04 20:58N 41°11' W 008°43'0 0.0
2018-Jan-04 20:28N 41°11' W 008°43'0 0.0
2018-Jan-04 19:58N 41°11' W 008°43'0 0.0
2018-Jan-04 19:28N 41°11' W 008°43'0 0.0
2018-Jan-04 18:58N 41°11' W 008°43'0 0.0
2018-Jan-04 18:28N 41°11' W 008°43'0 0.0
2018-Jan-04 17:58N 41°11' W 008°43'0 0.0
2018-Jan-04 17:28N 41°11' W 008°43'0 0.0
2018-Jan-04 16:58N 41°11' W 008°43'0 0.0
2018-Jan-04 16:28N 41°11' W 008°43'0 0.0
2018-Jan-04 15:58N 41°11' W 008°43'0 0.0
2018-Jan-04 15:28N 41°11' W 008°43'0 0.3
2018-Jan-04 15:01N 41°11' W 008°43'2 3.8
2018-Jan-04 14:31N 41°10' W 008°45'0 0.5
2018-Jan-04 14:00N 41°10' W 008°45'2 4.3
2018-Jan-04 13:30N 41°12' W 008°47'193 5.9
2018-Jan-03 04:51N 43°46' W 006°10'3 9.0
2018-Jan-03 04:29N 43°46' W 006°06'4 8.3
2018-Jan-03 03:59N 43°46' W 006°00'4 8.1
2018-Jan-03 03:30N 43°45' W 005°55'4 8.6
2018-Jan-03 03:00N 43°43' W 005°50'4 8.8
2018-Jan-03 02:30N 43°41' W 005°45'5 9.9
2018-Jan-03 02:00N 43°38' W 005°39'4 7.2
2018-Jan-03 01:29N 43°34' W 005°39'  

Dump ship's entire track history